Time;durP1;ratioP1;P1;durP2;ratioP2;P2;SDS_P1;SDS_P2;PMS_P1;PMS_P2;Temp;Humidity;BMP_temperature;BMP_pressure;BME280_temperature;BME280_humidity;BME280_pressure;Samples;Min_cycle;Max_cycle;Signal;HPM_P1;HPM_P2
2024/01/02 00:00:40;;;;;;;11.53;10.87;;;5.10;99.90;;;;;;5056796;28;20832;-50
2024/01/02 00:03:05;;;;;;;11.67;10.80;;;5.10;26.30;;;;;;5053916;28;20200;-54
2024/01/02 00:05:31;;;;;;;11.13;10.53;;;5.10;41.60;;;;;;5046693;28;20232;-55
2024/01/02 00:07:57;;;;;;;10.70;10.20;;;5.00;99.90;;;;;;5055496;28;20189;-53
2024/01/02 00:10:22;;;;;;;12.27;11.37;;;5.00;99.90;;;;;;5043441;28;20190;-54
2024/01/02 00:12:48;;;;;;;12.20;11.10;;;4.90;99.90;;;;;;5051523;28;20907;-53
2024/01/02 00:15:14;;;;;;;11.50;10.80;;;4.90;99.90;;;;;;5052963;28;20769;-55
2024/01/02 00:17:39;;;;;;;11.53;10.83;;;4.80;99.90;;;;;;5051937;28;20196;-50
2024/01/02 00:20:05;;;;;;;11.37;10.60;;;4.70;99.90;;;;;;5053614;28;20275;-51
2024/01/02 00:22:32;;;;;;;11.55;10.85;;;4.70;99.90;;;;;;5041193;28;20190;-49
2024/01/02 00:24:58;;;;;;;11.75;10.85;;;4.60;1.00;;;;;;5054821;28;20177;-51
2024/01/02 00:27:24;;;;;;;11.20;10.50;;;4.60;1.00;;;;;;5051224;28;20630;-51
2024/01/02 00:29:50;;;;;;;11.50;10.80;;;4.60;1.00;;;;;;5047528;28;20196;-51
2024/01/02 00:32:15;;;;;;;10.67;10.17;;;4.60;1.00;;;;;;5059085;28;20250;-51
2024/01/02 00:34:41;;;;;;;11.97;11.07;;;4.70;1.00;;;;;;5058543;28;20199;-56
2024/01/02 00:37:07;;;;;;;11.30;10.70;;;4.60;1.00;;;;;;5058997;28;20199;-54
2024/01/02 00:39:32;;;;;;;12.37;11.13;;;4.60;1.00;;;;;;5057457;28;20468;-54
2024/01/02 00:41:58;;;;;;;12.17;11.23;;;4.60;1.00;;;;;;5054176;28;20173;-54
2024/01/02 00:44:23;;;;;;;11.63;11.03;;;4.70;1.00;;;;;;5043822;28;20177;-51
2024/01/02 00:46:49;;;;;;;11.80;10.87;;;4.90;1.00;;;;;;5059172;28;20651;-53
2024/01/02 00:49:15;;;;;;;12.30;11.27;;;4.90;1.00;;;;;;5059671;28;20638;-51
2024/01/02 00:51:40;;;;;;;11.63;10.70;;;4.90;1.00;;;;;;5055998;28;20185;-56
2024/01/02 00:54:06;;;;;;;12.33;11.53;;;5.00;1.00;;;;;;5046920;28;20185;-54
2024/01/02 00:56:31;;;;;;;11.13;10.40;;;5.00;1.00;;;;;;5050111;28;21259;-56
2024/01/02 00:58:57;;;;;;;12.03;10.80;;;5.00;1.00;;;;;;5051863;28;20193;-51
2024/01/02 01:01:23;;;;;;;11.30;10.47;;;4.90;1.00;;;;;;5058728;28;20216;-53
2024/01/02 01:03:48;;;;;;;11.70;10.93;;;4.90;1.00;;;;;;5048312;28;20196;-53
2024/01/02 01:06:14;;;;;;;11.20;10.33;;;4.90;1.00;;;;;;5057174;28;20197;-52
2024/01/02 01:08:39;;;;;;;11.47;10.77;;;4.90;1.00;;;;;;5051089;28;20923;-35
2024/01/02 01:11:05;;;;;;;10.97;10.33;;;4.90;1.00;;;;;;5046878;28;20235;-37
2024/01/02 01:13:31;;;;;;;11.77;10.60;;;5.00;1.00;;;;;;5049672;28;20190;-36
2024/01/02 01:15:56;;;;;;;11.70;11.00;;;5.00;1.00;;;;;;5052799;28;20181;-35
2024/01/02 01:18:22;;;;;;;11.90;11.00;;;5.00;1.00;;;;;;5056908;28;20717;-37
2024/01/02 01:20:47;;;;;;;11.30;10.60;;;5.00;1.00;;;;;;5051131;28;20287;-38
2024/01/02 01:23:13;;;;;;;11.30;10.50;;;4.90;1.00;;;;;;5047767;28;20211;-36
2024/01/02 01:25:39;;;;;;;11.60;10.60;;;5.20;1.00;;;;;;5055796;28;20181;-38
2024/01/02 01:28:04;;;;;;;11.27;10.57;;;5.30;1.00;;;;;;5052894;28;20228;-36
2024/01/02 01:30:30;;;;;;;10.83;10.23;;;5.50;1.00;;;;;;5050335;28;20185;-35
2024/01/02 01:32:56;;;;;;;11.77;10.87;;;5.90;99.90;;;;;;5054242;28;20921;-37
2024/01/02 01:35:21;;;;;;;10.67;9.97;;;6.10;99.90;;;;;;5054022;28;20189;-52
2024/01/02 01:37:47;;;;;;;10.60;10.07;;;6.30;99.90;;;;;;5050173;28;20717;-51
2024/01/02 01:40:12;;;;;;;10.07;9.60;;;6.40;1.00;;;;;;5052977;28;20215;-55
2024/01/02 01:42:38;;;;;;;10.70;10.10;;;6.40;99.90;;;;;;5052944;28;20236;-53
2024/01/02 01:45:04;;;;;;;10.23;9.73;;;6.40;99.90;;;;;;5049446;28;20199;-55
2024/01/02 01:47:31;;;;;;;10.38;9.77;;;6.40;99.90;;;;;;5047522;28;20686;-45
2024/01/02 01:49:57;;;;;;;10.10;9.70;;;6.40;99.90;;;;;;5058913;28;20192;-53
2024/01/02 01:52:23;;;;;;;10.00;9.60;;;6.40;1.00;;;;;;5061144;28;20185;-53
2024/01/02 01:54:49;;;;;;;9.97;9.57;;;6.40;1.00;;;;;;5051571;28;20546;-54
2024/01/02 01:57:15;;;;;;;9.80;9.40;;;6.40;1.00;;;;;;5054795;28;20472;-56
2024/01/02 01:59:43;;;;;;;9.67;9.30;;;6.40;1.00;;;;;;5054848;28;20474;-51
2024/01/02 02:02:09;;;;;;;9.30;9.00;;;6.40;99.90;;;;;;5060696;28;20472;-52
2024/01/02 02:04:40;;;;;;;9.63;9.23;;;6.40;1.00;;;;;;5051573;28;20428;-53
2024/01/02 02:07:06;;;;;;;9.70;9.00;;;6.30;1.00;;;;;;5051493;28;20503;-50
2024/01/02 02:09:31;;;;;;;9.75;9.25;;;6.30;1.00;;;;;;5052414;28;20720;-54
2024/01/02 02:11:57;;;;;;;9.53;9.13;;;6.30;1.00;;;;;;5059460;28;20185;-52
2024/01/02 02:14:24;;;;;;;9.70;9.30;;;6.20;1.00;;;;;;5059892;28;20185;-54
2024/01/02 02:16:49;;;;;;;9.80;9.40;;;6.30;1.00;;;;;;5058452;28;20666;-53
2024/01/02 02:19:15;;;;;;;9.00;8.60;;;6.30;1.00;;;;;;5050176;28;20310;-54
2024/01/02 02:21:42;;;;;;;9.50;9.10;;;6.30;1.00;;;;;;5059829;28;20200;-55
2024/01/02 02:24:08;;;;;;;9.98;9.45;;;6.30;1.00;;;;;;5050954;28;20177;-52
2024/01/02 02:26:34;;;;;;;9.93;9.43;;;6.30;1.00;;;;;;5055799;28;20206;-56
2024/01/02 02:28:59;;;;;;;9.50;9.10;;;6.30;1.00;;;;;;5053464;28;20182;-51
2024/01/02 02:31:25;;;;;;;9.60;9.20;;;6.30;99.90;;;;;;5056219;28;20188;-54
2024/01/02 02:33:51;;;;;;;9.67;9.27;;;6.30;99.90;;;;;;5050838;28;20258;-54
2024/01/02 02:36:16;;;;;;;9.90;9.50;;;6.20;99.90;;;;;;5055758;28;20639;-55
2024/01/02 02:38:42;;;;;;;10.33;9.83;;;6.20;93.20;;;;;;5046235;28;20182;-54
2024/01/02 02:41:08;;;;;;;10.57;9.97;;;6.10;1.00;;;;;;5050025;28;20238;-53
2024/01/02 02:43:34;;;;;;;9.70;9.30;;;6.00;1.00;;;;;;5053431;28;20424;-51
2024/01/02 02:46:00;;;;;;;9.90;9.50;;;5.90;99.90;;;;;;5052955;28;20204;-53
2024/01/02 02:48:25;;;;;;;9.90;9.50;;;5.90;99.90;;;;;;5054512;28;20797;-51
2024/01/02 02:50:51;;;;;;;10.27;9.63;;;5.90;1.00;;;;;;5042412;28;20652;-50
2024/01/02 02:53:17;;;;;;;10.10;9.70;;;5.80;99.90;;;;;;5049500;28;20189;-53
2024/01/02 02:55:42;;;;;;;10.10;9.70;;;5.70;99.90;;;;;;5056450;28;20189;-53
2024/01/02 02:58:08;;;;;;;10.00;9.40;;;5.60;1.00;;;;;;5046928;28;20252;-55
2024/01/02 03:00:34;;;;;;;9.40;9.00;;;5.60;1.00;;;;;;5049422;28;20223;-53
2024/01/02 03:03:00;;;;;;;9.70;9.30;;;5.60;1.00;;;;;;5057831;28;20177;-56
2024/01/02 03:05:26;;;;;;;9.57;9.18;;;5.60;99.90;;;;;;5046686;28;20181;-53
2024/01/02 03:07:51;;;;;;;10.10;9.60;;;5.60;99.90;;;;;;5058895;28;20200;-51
2024/01/02 03:10:17;;;;;;;9.73;9.23;;;5.60;99.90;;;;;;5049597;28;20235;-52
2024/01/02 03:12:44;;;;;;;10.00;9.50;;;5.60;99.90;;;;;;5054428;28;20186;-55
2024/01/02 03:15:10;;;;;;;9.95;9.45;;;5.50;99.90;;;;;;5057280;28;20196;-53
2024/01/02 03:17:36;;;;;;;10.00;9.50;;;5.50;99.90;;;;;;5059212;28;20396;-54
2024/01/02 03:20:02;;;;;;;10.60;9.77;;;5.50;99.90;;;;;;5054146;28;20248;-50
2024/01/02 03:22:28;;;;;;;10.10;9.60;;;5.50;1.00;;;;;;5049056;28;20299;-56
2024/01/02 03:24:54;;;;;;;9.90;9.50;;;5.40;1.00;;;;;;5050836;28;20258;-53
2024/01/02 03:27:20;;;;;;;10.10;9.70;;;5.40;1.00;;;;;;5046411;28;20601;-55
2024/01/02 03:29:45;;;;;;;10.03;9.63;;;5.40;1.00;;;;;;5046708;28;20233;-53
2024/01/02 03:32:11;;;;;;;10.43;9.87;;;5.30;1.00;;;;;;5047226;28;20276;-57
2024/01/02 03:34:37;;;;;;;10.80;10.30;;;5.30;1.00;;;;;;5053741;28;20182;-52
2024/01/02 03:37:03;;;;;;;10.80;10.30;;;5.30;1.00;;;;;;5054944;28;20213;-51
2024/01/02 03:39:29;;;;;;;11.40;10.80;;;5.30;1.00;;;;;;5048430;28;20678;-53
2024/01/02 03:41:55;;;;;;;11.27;10.77;;;5.30;1.00;;;;;;5053294;28;20513;-52
2024/01/02 03:44:20;;;;;;;10.23;9.83;;;5.40;1.00;;;;;;5056815;28;20283;-52
2024/01/02 03:46:46;;;;;;;11.40;10.90;;;5.40;1.00;;;;;;5044455;28;20193;-55
2024/01/02 03:49:12;;;;;;;11.67;11.00;;;5.40;1.00;;;;;;5051063;28;20232;-53
2024/01/02 03:51:39;;;;;;;11.00;10.50;;;5.40;1.00;;;;;;5048292;28;20427;-46
2024/01/02 03:54:05;;;;;;;11.23;10.52;;;5.40;1.00;;;;;;5050478;28;20589;-55
2024/01/02 03:56:30;;;;;;;11.20;10.70;;;5.30;1.00;;;;;;5049408;28;20197;-54
2024/01/02 03:58:56;;;;;;;11.47;10.97;;;5.30;1.00;;;;;;5046192;28;20408;-55
2024/01/02 04:01:21;;;;;;;11.63;11.07;;;5.30;1.00;;;;;;5046495;28;20291;-54
2024/01/02 04:03:47;;;;;;;11.97;11.37;;;5.30;6.20;;;;;;5056500;28;20188;-50
2024/01/02 04:06:13;;;;;;;10.77;10.20;;;5.30;7.70;;;;;;5058738;28;20942;-53
2024/01/02 04:08:38;;;;;;;11.50;10.80;;;5.30;4.10;;;;;;5054771;28;20304;-35
2024/01/02 04:11:04;;;;;;;11.83;11.33;;;5.30;4.00;;;;;;5050924;28;20182;-36
2024/01/02 04:13:30;;;;;;;12.02;11.43;;;5.10;1.00;;;;;;5059006;28;20307;-36
2024/01/02 04:15:56;;;;;;;11.50;10.90;;;5.20;3.90;;;;;;5050569;28;20189;-36
2024/01/02 04:18:21;;;;;;;11.27;10.70;;;5.10;3.20;;;;;;5057614;28;20194;-36
2024/01/02 04:20:47;;;;;;;11.53;11.03;;;5.00;15.20;;;;;;5057289;28;20248;-36
2024/01/02 04:23:13;;;;;;;11.20;10.60;;;5.10;18.80;;;;;;5051181;28;20571;-36
2024/01/02 04:25:38;;;;;;;11.27;10.67;;;5.00;15.90;;;;;;5047640;28;20182;-36
2024/01/02 04:28:04;;;;;;;11.50;10.90;;;5.10;22.50;;;;;;5056009;28;20189;-36
2024/01/02 04:30:30;;;;;;;10.73;10.00;;;5.10;14.60;;;;;;5060522;28;20196;-35
2024/01/02 04:32:56;;;;;;;11.10;10.60;;;5.10;1.00;;;;;;5053447;28;20193;-37
2024/01/02 04:35:21;;;;;;;9.90;9.50;;;5.10;1.00;;;;;;5054596;28;20197;-36
2024/01/02 04:37:47;;;;;;;11.83;11.33;;;5.10;1.00;;;;;;5046308;28;20193;-36
2024/01/02 04:40:13;;;;;;;11.20;10.60;;;5.10;1.00;;;;;;5051388;28;20303;-36
2024/01/02 04:42:39;;;;;;;12.27;11.50;;;5.10;1.00;;;;;;5047549;28;20181;-53
2024/01/02 04:45:05;;;;;;;11.80;11.20;;;5.10;1.00;;;;;;5055409;28;20185;-52
2024/01/02 04:47:32;;;;;;;12.10;11.60;;;5.10;1.00;;;;;;5049004;28;20181;-56
2024/01/02 04:49:59;;;;;;;12.60;11.85;;;5.20;1.00;;;;;;5055395;28;20200;-52
2024/01/02 04:52:26;;;;;;;12.63;11.93;;;5.20;2.80;;;;;;5045022;28;20660;-54
2024/01/02 04:54:51;;;;;;;12.18;11.50;;;5.30;4.10;;;;;;5058088;28;20682;-56
2024/01/02 04:57:17;;;;;;;12.10;11.60;;;5.20;5.40;;;;;;5047925;28;20193;-54
2024/01/02 04:59:42;;;;;;;12.30;11.67;;;5.30;15.50;;;;;;5047671;28;20288;-55
2024/01/02 05:02:09;;;;;;;12.33;11.70;;;5.30;17.50;;;;;;5052720;28;20181;-51
2024/01/02 05:04:34;;;;;;;12.73;12.02;;;5.30;22.30;;;;;;5052478;28;20259;-53
2024/01/02 05:07:00;;;;;;;12.77;12.17;;;5.30;25.20;;;;;;5044392;28;20220;-53
2024/01/02 05:09:27;;;;;;;12.77;12.00;;;5.30;31.90;;;;;;5046757;28;20213;-53
2024/01/02 05:11:53;;;;;;;12.55;11.75;;;5.30;41.50;;;;;;5043761;28;20190;-55
2024/01/02 05:14:18;;;;;;;13.60;12.80;;;5.30;46.70;;;;;;5044249;28;20196;-55
2024/01/02 05:16:44;;;;;;;13.87;13.00;;;5.30;54.40;;;;;;5051911;28;20449;-51
2024/01/02 05:19:09;;;;;;;12.80;12.10;;;5.30;69.20;;;;;;5043766;28;20237;-53
2024/01/02 05:21:35;;;;;;;12.30;11.50;;;5.40;85.70;;;;;;5056810;28;20189;-52
2024/01/02 05:24:01;;;;;;;12.80;11.97;;;5.40;94.40;;;;;;5051977;28;20288;-55
2024/01/02 05:26:27;;;;;;;13.05;12.43;;;5.40;99.20;;;;;;5058626;28;20573;-52
2024/01/02 05:28:52;;;;;;;13.30;12.60;;;5.40;99.90;;;;;;5054877;28;20185;-53
2024/01/02 05:31:18;;;;;;;12.70;12.00;;;5.40;99.90;;;;;;5060392;28;20835;-56
2024/01/02 05:33:44;;;;;;;12.87;12.27;;;5.40;99.90;;;;;;5042716;28;20186;-51
2024/01/02 05:36:09;;;;;;;13.27;12.57;;;5.40;99.90;;;;;;5057638;28;20185;-51
2024/01/02 05:38:35;;;;;;;14.33;13.53;;;5.50;99.90;;;;;;5053363;28;20613;-54
2024/01/02 05:41:00;;;;;;;12.20;11.60;;;5.50;99.90;;;;;;5048903;28;20198;-53
2024/01/02 05:43:26;;;;;;;14.47;13.67;;;5.40;99.90;;;;;;5042702;28;20185;-53
2024/01/02 05:45:52;;;;;;;13.77;13.07;;;5.50;99.90;;;;;;5042665;28;20251;-56
2024/01/02 05:48:17;;;;;;;12.80;12.13;;;5.50;99.90;;;;;;5042607;28;20424;-47
2024/01/02 05:50:43;;;;;;;12.80;12.20;;;5.50;99.90;;;;;;5042470;28;20185;-53
2024/01/02 05:53:12;;;;;;;14.07;13.10;;;5.50;99.90;;;;;;5042573;28;20195;-51
2024/01/02 05:55:38;;;;;;;13.10;12.50;;;5.50;99.90;;;;;;5042567;28;20208;-52
2024/01/02 05:58:04;;;;;;;12.23;11.65;;;5.50;99.90;;;;;;5045991;28;20186;-56
2024/01/02 06:00:30;;;;;;;14.73;13.90;;;5.50;99.90;;;;;;5045240;28;20576;-50
2024/01/02 06:02:56;;;;;;;13.80;13.10;;;5.50;99.90;;;;;;5040737;28;20292;-52
2024/01/02 06:05:21;;;;;;;14.40;13.50;;;5.40;99.90;;;;;;5039798;28;20975;-55
2024/01/02 06:07:47;;;;;;;13.37;12.77;;;5.50;99.90;;;;;;5040405;28;20182;-50
2024/01/02 06:10:12;;;;;;;13.80;13.10;;;5.40;99.90;;;;;;5041862;28;20229;-55
2024/01/02 06:12:38;;;;;;;13.93;13.03;;;5.40;99.90;;;;;;5041513;28;20185;-51
2024/01/02 06:15:04;;;;;;;13.83;12.83;;;5.40;99.90;;;;;;5054477;28;20196;-55
2024/01/02 06:17:30;;;;;;;12.10;11.50;;;5.40;99.90;;;;;;5052630;28;20189;-53
2024/01/02 06:19:56;;;;;;;13.70;13.00;;;5.40;99.90;;;;;;5042162;28;21002;-46
2024/01/02 06:22:22;;;;;;;13.60;12.80;;;5.50;99.90;;;;;;5052238;28;20417;-52
2024/01/02 06:24:48;;;;;;;13.30;12.60;;;5.40;99.90;;;;;;5039770;28;20190;-53
2024/01/02 06:27:13;;;;;;;13.77;13.07;;;5.40;99.90;;;;;;5041840;28;20416;-54
2024/01/02 06:29:39;;;;;;;14.33;13.53;;;5.50;99.90;;;;;;5041713;28;20225;-37
2024/01/02 06:32:05;;;;;;;14.00;13.20;;;5.40;99.90;;;;;;5059957;28;20268;-49
2024/01/02 06:34:31;;;;;;;14.52;13.63;;;5.40;99.90;;;;;;5041097;28;20424;-53
2024/01/02 06:36:57;;;;;;;14.70;13.90;;;5.40;99.90;;;;;;5044092;28;20192;-52
2024/01/02 06:39:22;;;;;;;14.43;13.70;;;5.40;99.90;;;;;;5058379;28;20216;-53
2024/01/02 06:41:48;;;;;;;14.10;13.40;;;5.40;99.90;;;;;;5052349;28;21072;-52
2024/01/02 06:44:13;;;;;;;14.67;13.77;;;5.40;99.90;;;;;;5040892;28;20190;-55
2024/01/02 06:46:39;;;;;;;14.13;13.37;;;5.50;99.90;;;;;;5041307;28;20987;-54
2024/01/02 06:49:05;;;;;;;13.20;12.50;;;5.50;99.90;;;;;;5041465;28;20182;-36
2024/01/02 06:51:30;;;;;;;14.43;13.53;;;5.50;99.90;;;;;;5058102;28;20189;-37
2024/01/02 06:53:56;;;;;;;14.70;13.80;;;5.50;99.90;;;;;;5041407;28;20274;-36
2024/01/02 06:56:21;;;;;;;14.90;13.73;;;5.50;99.90;;;;;;5041367;28;20190;-37
2024/01/02 06:58:47;;;;;;;14.33;13.40;;;5.40;97.90;;;;;;5041714;28;21050;-36
2024/01/02 07:01:15;;;;;;;15.00;14.20;;;5.40;98.70;;;;;;5043410;28;20231;-36
2024/01/02 07:03:40;;;;;;;13.85;13.05;;;5.40;98.00;;;;;;5042734;28;20181;-41
2024/01/02 07:06:06;;;;;;;15.40;14.30;;;5.40;99.20;;;;;;5042041;28;20323;-36
2024/01/02 07:08:31;;;;;;;15.50;14.60;;;5.40;99.90;;;;;;5038965;28;20513;-37
2024/01/02 07:10:57;;;;;;;15.17;14.03;;;5.40;98.50;;;;;;5040293;28;20181;-37
2024/01/02 07:13:23;;;;;;;15.37;14.37;;;5.40;97.20;;;;;;5040942;28;20635;-36
2024/01/02 07:15:49;;;;;;;15.60;14.60;;;5.40;94.50;;;;;;5039862;28;20220;-36
2024/01/02 07:18:15;;;;;;;14.90;14.05;;;5.40;96.10;;;;;;5041424;28;20292;-38
2024/01/02 07:20:41;;;;;;;13.90;13.10;;;5.40;99.90;;;;;;5040024;28;20859;-37
2024/01/02 07:23:06;;;;;;;15.00;14.20;;;5.40;99.90;;;;;;5039771;28;20174;-36
2024/01/02 07:25:32;;;;;;;14.70;13.90;;;5.40;99.40;;;;;;5040073;28;20231;-37
2024/01/02 07:27:58;;;;;;;14.50;13.70;;;5.40;95.80;;;;;;5039380;28;20174;-37
2024/01/02 07:30:24;;;;;;;15.33;14.50;;;5.40;96.70;;;;;;5043425;28;20490;-37
2024/01/02 07:32:49;;;;;;;16.20;14.83;;;5.50;95.50;;;;;;5041487;28;20182;-36
2024/01/02 07:35:15;;;;;;;15.00;14.20;;;5.50;95.20;;;;;;5038471;28;20186;-36
2024/01/02 07:37:40;;;;;;;15.30;14.50;;;5.50;95.60;;;;;;5043472;28;20198;-36
2024/01/02 07:40:07;;;;;;;15.13;14.03;;;5.50;93.00;;;;;;5045476;28;20501;-37
2024/01/02 07:42:33;;;;;;;15.70;14.60;;;5.50;83.70;;;;;;5047354;28;20259;-37
2024/01/02 07:44:59;;;;;;;14.87;14.17;;;5.40;88.20;;;;;;5042195;28;20209;-37
2024/01/02 07:47:25;;;;;;;14.93;14.03;;;5.40;93.50;;;;;;5043068;28;20515;-37
2024/01/02 07:49:51;;;;;;;14.60;13.80;;;5.40;96.80;;;;;;5045081;28;20670;-53
2024/01/02 07:52:17;;;;;;;14.67;13.97;;;5.40;99.90;;;;;;5043834;28;20212;-50
2024/01/02 07:54:43;;;;;;;14.50;13.80;;;5.40;99.10;;;;;;5043401;28;20269;-54
2024/01/02 07:57:09;;;;;;;14.10;13.40;;;5.40;99.90;;;;;;5043277;28;20212;-54
2024/01/02 07:59:34;;;;;;;15.10;14.40;;;5.40;99.90;;;;;;5042886;28;20293;-51
2024/01/02 08:02:00;;;;;;;14.60;13.90;;;5.40;99.90;;;;;;5046232;28;20431;-52
2024/01/02 08:04:26;;;;;;;15.20;14.30;;;5.40;99.90;;;;;;5043746;28;20186;-53
2024/01/02 08:06:51;;;;;;;14.80;14.00;;;5.40;99.90;;;;;;5047989;28;20177;-53
2024/01/02 08:09:17;;;;;;;14.97;14.07;;;5.40;99.90;;;;;;5044924;28;20193;-51
2024/01/02 08:11:42;;;;;;;14.17;13.43;;;5.40;99.90;;;;;;5045116;28;20662;-54
2024/01/02 08:14:09;;;;;;;14.50;13.70;;;5.40;99.90;;;;;;5050183;28;20181;-51
2024/01/02 08:16:34;;;;;;;14.90;14.10;;;5.40;99.90;;;;;;5043211;28;20904;-53
2024/01/02 08:19:00;;;;;;;14.20;13.17;;;5.40;99.90;;;;;;5053516;28;20235;-49
2024/01/02 08:21:26;;;;;;;14.60;13.80;;;5.40;99.90;;;;;;5047689;28;20298;-53
2024/01/02 08:23:52;;;;;;;15.50;14.65;;;5.40;99.90;;;;;;5060193;28;20823;-52
2024/01/02 08:26:18;;;;;;;15.43;14.33;;;5.30;99.90;;;;;;5046637;28;20224;-55
2024/01/02 08:28:44;;;;;;;13.97;13.23;;;5.30;99.90;;;;;;5062916;28;20910;-53
2024/01/02 08:31:09;;;;;;;14.43;13.63;;;5.30;99.90;;;;;;5059029;28;20193;-56
2024/01/02 08:33:35;;;;;;;14.90;13.80;;;5.30;99.90;;;;;;5062842;28;20419;-56
2024/01/02 08:36:00;;;;;;;15.03;14.03;;;5.30;99.90;;;;;;5054305;28;20902;-51
2024/01/02 08:38:26;;;;;;;14.83;13.83;;;5.30;99.90;;;;;;5044874;28;20175;-55
2024/01/02 08:40:52;;;;;;;15.40;14.50;;;5.30;99.90;;;;;;5048661;28;20343;-55
2024/01/02 08:43:18;;;;;;;15.40;14.15;;;5.30;99.90;;;;;;5046322;28;20197;-53
2024/01/02 08:45:44;;;;;;;15.33;14.33;;;5.30;99.90;;;;;;5047968;28;20188;-54
2024/01/02 08:48:13;;;;;;;14.48;13.70;;;5.20;99.90;;;;;;5046262;28;20185;-57
2024/01/02 08:50:44;;;;;;;13.93;13.10;;;5.30;99.90;;;;;;5052473;28;20185;-54
2024/01/02 08:53:13;;;;;;;14.60;13.77;;;5.20;99.90;;;;;;5057021;28;20268;-54
2024/01/02 08:55:40;;;;;;;14.10;13.40;;;5.20;99.90;;;;;;5048616;28;20271;-56
2024/01/02 08:58:05;;;;;;;14.52;13.80;;;5.20;99.90;;;;;;5057419;28;20185;-52
2024/01/02 09:00:31;;;;;;;15.33;14.20;;;5.20;99.90;;;;;;5050342;28;20894;-55
2024/01/02 09:02:59;;;;;;;13.75;13.05;;;5.20;99.90;;;;;;5056435;28;20521;-55
2024/01/02 09:05:26;;;;;;;14.27;13.48;;;5.20;99.90;;;;;;5054756;28;20220;-54
2024/01/02 09:07:55;;;;;;;15.30;14.50;;;5.20;99.90;;;;;;5055022;28;20165;-58
2024/01/02 09:10:21;;;;;;;14.13;13.32;;;5.20;99.90;;;;;;5055016;28;20280;-54
2024/01/02 09:12:47;;;;;;;14.40;13.70;;;5.20;99.90;;;;;;5055947;28;20182;-54
2024/01/02 09:15:13;;;;;;;15.20;14.40;;;5.20;99.90;;;;;;5051182;28;21078;-52
2024/01/02 09:17:38;;;;;;;13.17;12.57;;;5.20;99.90;;;;;;5046404;28;20189;-48
2024/01/02 09:20:05;;;;;;;14.37;13.67;;;5.30;99.90;;;;;;5055987;28;20490;-57
2024/01/02 09:22:31;;;;;;;14.13;13.43;;;5.20;99.90;;;;;;5057404;28;20248;-55
2024/01/02 09:24:59;;;;;;;13.10;12.40;;;5.30;99.90;;;;;;5051108;28;20323;-54
2024/01/02 09:27:28;;;;;;;13.45;12.85;;;5.30;99.90;;;;;;5056048;28;20416;-52
2024/01/02 09:29:54;;;;;;;12.93;12.32;;;5.30;99.90;;;;;;5059537;28;20268;-53
2024/01/02 09:32:20;;;;;;;13.13;12.53;;;5.30;99.90;;;;;;5051276;28;20277;-56
2024/01/02 09:34:45;;;;;;;13.87;12.97;;;5.30;99.90;;;;;;5060769;28;20211;-56
2024/01/02 09:37:11;;;;;;;12.60;12.00;;;5.40;99.90;;;;;;5051121;28;20872;-57
2024/01/02 09:39:37;;;;;;;12.90;12.20;;;5.40;99.90;;;;;;5061969;28;20204;-58
2024/01/02 09:42:12;;;;;;;12.70;12.00;;;5.50;99.90;;;;;;5045602;28;20734;-54
2024/01/02 09:44:56;;;;;;;13.27;12.57;;;5.60;99.90;;;;;;5059109;28;20978;-54
2024/01/02 09:47:34;;;;;;;12.30;11.63;;;5.60;99.90;;;;;;5050474;28;20184;-54
2024/01/02 09:50:17;;;;;;;14.13;13.43;;;5.60;99.90;;;;;;5054026;28;20207;-54
2024/01/02 09:53:31;;;;;;;13.48;12.88;;;5.50;99.90;;;;;;5048475;28;20188;-52
2024/01/02 09:56:15;;;;;;;13.43;12.82;;;5.50;99.90;;;;;;5036026;28;20209;-51
2024/01/02 09:58:59;;;;;;;13.90;13.30;;;5.50;99.90;;;;;;5049567;28;20288;-56
2024/01/02 10:01:40;;;;;;;13.02;12.45;;;5.50;99.90;;;;;;5040747;28;20659;-54
2024/01/02 10:04:11;;;;;;;13.40;12.80;;;5.50;99.90;;;;;;5041429;28;20725;-52
2024/01/02 10:06:58;;;;;;;12.85;12.25;;;5.40;99.90;;;;;;5041654;28;20177;-53
2024/01/02 10:09:39;;;;;;;13.70;13.00;;;5.40;99.90;;;;;;5060419;28;20699;-55
2024/01/02 10:12:20;;;;;;;13.55;12.82;;;5.50;99.90;;;;;;5073992;28;21154;-54
2024/01/02 10:15:20;;;;;;;13.30;12.70;;;5.50;99.90;;;;;;5040635;28;20626;-53
2024/01/02 10:17:53;;;;;;;13.40;12.80;;;5.50;99.90;;;;;;5039744;28;20637;-49
2024/01/02 10:20:38;;;;;;;13.95;13.35;;;5.50;99.90;;;;;;5040862;28;20230;-54
2024/01/02 10:23:06;;;;;;;13.57;12.98;;;5.50;99.90;;;;;;5041016;28;20263;-54
2024/01/02 10:25:33;;;;;;;13.60;13.00;;;5.50;99.90;;;;;;5048671;28;20615;-54
2024/01/02 10:28:15;;;;;;;12.75;12.18;;;5.50;99.90;;;;;;5041592;28;20640;-53
2024/01/02 10:31:04;;;;;;;12.95;12.45;;;5.60;99.90;;;;;;5049865;28;20270;-53
2024/01/02 10:33:39;;;;;;;13.23;12.63;;;5.60;99.90;;;;;;5041253;28;20520;-51
2024/01/02 10:36:09;;;;;;;13.57;12.88;;;5.60;99.90;;;;;;5040555;28;20185;-53
2024/01/02 10:39:05;;;;;;;12.90;12.30;;;5.60;99.90;;;;;;5040319;28;21205;-53
2024/01/02 10:41:52;;;;;;;12.20;11.70;;;5.60;99.90;;;;;;5035922;28;20316;-49
2024/01/02 10:44:41;;;;;;;12.80;12.20;;;5.60;99.90;;;;;;5040504;28;20185;-55
2024/01/02 10:47:17;;;;;;;12.32;11.82;;;5.60;99.90;;;;;;5043902;28;20295;-51
2024/01/02 10:49:51;;;;;;;14.00;13.30;;;5.60;99.90;;;;;;5040450;28;20196;-48
2024/01/02 10:52:24;;;;;;;13.70;13.10;;;5.60;99.90;;;;;;5040626;28;20261;-54
2024/01/02 10:55:17;;;;;;;13.48;12.88;;;5.60;99.90;;;;;;5040466;28;20269;-52
2024/01/02 10:58:10;;;;;;;13.00;12.40;;;5.60;99.90;;;;;;5040265;28;20209;-49
2024/01/02 11:01:01;;;;;;;13.10;12.50;;;5.60;99.90;;;;;;5049120;28;20212;-52
2024/01/02 11:03:29;;;;;;;13.38;12.77;;;5.60;99.90;;;;;;5049242;28;20181;-48
2024/01/02 11:06:07;;;;;;;14.13;13.43;;;5.60;99.90;;;;;;5059523;28;20181;-52
2024/01/02 11:08:50;;;;;;;13.13;12.52;;;5.60;99.90;;;;;;5080049;28;20184;-55
2024/01/02 11:11:16;;;;;;;13.23;12.63;;;5.60;99.90;;;;;;5045856;28;21479;-56
2024/01/02 11:13:43;;;;;;;12.32;11.82;;;5.60;99.90;;;;;;5051586;28;20287;-54
2024/01/02 11:16:16;;;;;;;13.07;12.48;;;5.50;99.90;;;;;;5054054;28;20225;-38
2024/01/02 11:18:45;;;;;;;12.98;12.38;;;5.50;99.90;;;;;;5043377;28;20421;-36
2024/01/02 11:21:26;;;;;;;13.15;12.55;;;5.50;99.90;;;;;;5054522;28;20331;-36
2024/01/02 11:23:54;;;;;;;12.98;12.43;;;5.50;99.90;;;;;;5042821;28;20193;-37
2024/01/02 11:26:24;;;;;;;12.88;12.27;;;5.50;99.90;;;;;;5057357;28;20200;-36
2024/01/02 11:28:51;;;;;;;14.38;13.68;;;5.40;99.90;;;;;;5043899;28;20276;-38
2024/01/02 11:31:18;;;;;;;12.73;12.15;;;5.40;99.90;;;;;;5049351;28;20186;-37
2024/01/02 11:34:04;;;;;;;12.50;12.00;;;5.50;99.90;;;;;;5049080;28;20193;-36
2024/01/02 11:36:48;;;;;;;13.20;12.60;;;5.50;99.90;;;;;;5041890;28;20204;-37
2024/01/02 11:39:22;;;;;;;13.48;12.80;;;5.50;99.90;;;;;;5043784;28;20679;-37
2024/01/02 11:42:06;;;;;;;13.52;12.93;;;5.50;99.90;;;;;;5051285;28;20260;-37
2024/01/02 11:44:43;;;;;;;12.20;11.60;;;5.50;99.90;;;;;;5039628;28;20536;-36
2024/01/02 11:47:24;;;;;;;12.95;12.35;;;5.60;99.90;;;;;;5039060;28;20549;-37
2024/01/02 11:49:57;;;;;;;11.05;10.55;;;5.60;99.90;;;;;;5043919;28;20680;-37
2024/01/02 11:52:23;;;;;;;13.00;12.40;;;5.60;99.90;;;;;;5048249;28;20204;-37
2024/01/02 11:54:56;;;;;;;12.85;12.15;;;5.60;99.90;;;;;;5039806;28;20228;-38
2024/01/02 11:57:27;;;;;;;13.88;13.27;;;5.50;99.90;;;;;;5053035;28;20188;-37
2024/01/02 12:00:03;;;;;;;13.50;12.80;;;5.50;99.90;;;;;;5048137;28;20206;-38
2024/01/02 12:02:45;;;;;;;13.77;13.07;;;5.60;99.90;;;;;;5049184;28;20174;-37
2024/01/02 12:05:35;;;;;;;14.20;13.45;;;5.60;99.90;;;;;;5054049;28;20189;-37
2024/01/02 12:08:05;;;;;;;13.30;12.60;;;5.50;99.90;;;;;;5047139;28;20280;-38
2024/01/02 12:10:38;;;;;;;13.30;12.70;;;5.50;99.90;;;;;;5042949;28;20182;-38
2024/01/02 12:13:18;;;;;;;13.20;12.60;;;5.50;99.90;;;;;;5049532;28;20232;-39
2024/01/02 12:15:53;;;;;;;12.65;12.05;;;5.50;99.90;;;;;;5047150;28;20261;-38
2024/01/02 12:18:23;;;;;;;13.10;12.50;;;5.50;99.90;;;;;;5052775;28;20165;-39
2024/01/02 12:21:02;;;;;;;13.60;12.98;;;5.60;99.90;;;;;;5048199;28;20686;-37
2024/01/02 12:23:32;;;;;;;12.35;11.85;;;5.50;99.90;;;;;;5051710;28;20230;-38
2024/01/02 12:26:02;;;;;;;13.25;12.65;;;5.50;99.90;;;;;;5053686;28;21086;-37
2024/01/02 12:28:31;;;;;;;12.40;11.90;;;5.50;99.90;;;;;;5056916;28;20547;-38
2024/01/02 12:31:08;;;;;;;12.43;11.93;;;5.50;99.90;;;;;;5059468;28;20211;-37
2024/01/02 12:33:34;;;;;;;12.30;11.70;;;5.60;99.90;;;;;;5056236;28;20185;-40
2024/01/02 12:36:10;;;;;;;11.32;10.82;;;5.50;99.90;;;;;;5058486;28;20238;-37
2024/01/02 12:38:51;;;;;;;12.30;11.80;;;5.50;99.90;;;;;;5054715;28;20193;-38
2024/01/02 12:41:30;;;;;;;12.65;12.05;;;5.50;99.90;;;;;;5048610;28;20243;-37
2024/01/02 12:44:01;;;;;;;12.23;11.73;;;5.50;99.90;;;;;;5045267;28;20185;-37
2024/01/02 12:46:39;;;;;;;12.80;12.20;;;5.50;99.90;;;;;;5043393;28;20193;-35
2024/01/02 12:49:15;;;;;;;12.57;12.07;;;5.50;99.90;;;;;;5046272;28;20659;-37